createdAt,value
2019-05-17T00:00:57.320Z,1004.61
2019-05-17T00:01:57.784Z,1004.64
2019-05-17T00:02:57.127Z,1004.60
2019-05-17T00:03:56.595Z,1004.59
2019-05-17T00:04:56.557Z,1004.62
2019-05-17T00:05:57.008Z,1004.58
2019-05-17T00:06:57.043Z,1004.52
2019-05-17T00:07:56.778Z,1004.48
2019-05-17T00:08:56.555Z,1004.50
2019-05-17T00:09:57.547Z,1004.53
2019-05-17T00:10:57.055Z,1004.53
2019-05-17T00:11:58.161Z,1004.47
2019-05-17T00:12:56.512Z,1004.52
2019-05-17T00:13:57.034Z,1004.47
2019-05-17T00:14:56.857Z,1004.45
2019-05-17T00:15:57.348Z,1004.45
2019-05-17T00:16:57.344Z,1004.42
2019-05-17T00:17:57.112Z,1004.45
2019-05-17T00:18:56.908Z,1004.39
2019-05-17T00:19:56.851Z,1004.35
2019-05-17T00:20:56.941Z,1004.36
2019-05-17T00:21:56.781Z,1004.30
2019-05-17T00:22:57.378Z,1004.33
2019-05-17T00:23:57.255Z,1004.26
2019-05-17T00:24:56.840Z,1004.31
2019-05-17T00:25:56.555Z,1004.27
2019-05-17T00:26:58.495Z,1004.21
2019-05-17T00:27:56.480Z,1004.20
2019-05-17T00:28:56.395Z,1004.19
2019-05-17T00:29:57.142Z,1004.21
2019-05-17T00:30:57.118Z,1004.14
2019-05-17T00:31:56.816Z,1004.17
2019-05-17T00:32:56.961Z,1004.15
2019-05-17T00:33:56.737Z,1004.14
2019-05-17T00:34:56.460Z,1004.13
2019-05-17T00:35:56.388Z,1004.10
2019-05-17T00:36:57.378Z,1004.15
2019-05-17T00:37:57.118Z,1004.09
2019-05-17T00:38:56.792Z,1004.10
2019-05-17T00:39:56.777Z,1004.09
2019-05-17T00:40:56.868Z,1004.07
2019-05-17T00:41:57.312Z,1004.12
2019-05-17T00:42:57.089Z,1004.11
2019-05-17T00:43:56.956Z,1004.10
2019-05-17T00:44:56.621Z,1004.09
2019-05-17T00:45:57.442Z,1004.10
2019-05-17T00:46:58.862Z,1004.05
2019-05-17T00:47:57.232Z,1004.06
2019-05-17T00:48:57.272Z,1004.06
2019-05-17T00:49:57.050Z,1004.05
2019-05-17T00:51:01.721Z,1004.03
2019-05-17T00:51:56.775Z,1003.97
2019-05-17T00:52:56.626Z,1004.01
2019-05-17T00:53:56.325Z,1004.00
2019-05-17T00:54:56.384Z,1003.94
2019-05-17T00:55:57.329Z,1003.97
2019-05-17T00:56:56.706Z,1003.93
2019-05-17T00:57:56.563Z,1003.90
2019-05-17T00:58:56.824Z,1003.91
2019-05-17T00:59:56.520Z,1003.91
2019-05-17T01:00:57.061Z,1003.88
2019-05-17T01:01:56.293Z,1003.88
2019-05-17T01:02:57.334Z,1003.85
2019-05-17T01:03:57.140Z,1003.87
2019-05-17T01:04:56.811Z,1003.88
2019-05-17T01:05:56.759Z,1003.84
2019-05-17T01:06:56.343Z,1003.84
2019-05-17T01:07:57.311Z,1003.80
2019-05-17T01:09:01.846Z,1003.82
2019-05-17T01:09:56.618Z,1003.82
2019-05-17T01:10:56.616Z,1003.78
2019-05-17T01:11:56.640Z,1003.77
2019-05-17T01:12:57.565Z,1003.78
2019-05-17T01:13:58.523Z,1003.76
2019-05-17T01:14:58.128Z,1003.73
2019-05-17T01:15:56.567Z,1003.77
2019-05-17T01:16:56.515Z,1003.72
2019-05-17T01:17:56.368Z,1003.71
2019-05-17T01:18:57.343Z,1003.72
2019-05-17T01:19:57.361Z,1003.70
2019-05-17T01:20:56.783Z,1003.66
2019-05-17T01:21:56.807Z,1003.68
2019-05-17T01:22:56.685Z,1003.68
2019-05-17T01:23:56.322Z,1003.67
2019-05-17T01:24:56.972Z,1003.66
2019-05-17T01:25:56.723Z,1003.65
2019-05-17T01:26:57.399Z,1003.58
2019-05-17T01:27:56.408Z,1003.61
2019-05-17T01:28:57.320Z,1003.57
2019-05-17T01:29:57.256Z,1003.59
2019-05-17T01:30:56.961Z,1003.57
2019-05-17T01:31:57.076Z,1003.54
2019-05-17T01:32:57.067Z,1003.54
2019-05-17T01:33:56.492Z,1003.52
2019-05-17T01:34:56.506Z,1003.53
2019-05-17T01:35:57.313Z,1003.51
2019-05-17T01:36:56.940Z,1003.50
2019-05-17T01:37:56.475Z,1003.52
2019-05-17T01:38:57.609Z,1003.47
2019-05-17T01:39:57.399Z,1003.47
2019-05-17T01:40:56.446Z,1003.51
2019-05-17T01:41:57.387Z,1003.46
2019-05-17T01:42:58.026Z,1003.51
2019-05-17T01:43:56.945Z,1003.45
2019-05-17T01:44:56.798Z,1003.44
2019-05-17T01:45:57.417Z,1003.46
2019-05-17T01:46:56.700Z,1003.44
2019-05-17T01:47:56.301Z,1003.45
2019-05-17T01:48:57.749Z,1003.43
2019-05-17T01:49:57.598Z,1003.44
2019-05-17T01:50:56.802Z,1003.42
2019-05-17T01:51:56.813Z,1003.44
2019-05-17T01:52:56.634Z,1003.43
2019-05-17T01:53:57.336Z,1003.40
2019-05-17T01:54:57.137Z,1003.40
2019-05-17T01:55:56.846Z,1003.37
2019-05-17T01:56:56.672Z,1003.38
2019-05-17T01:57:56.463Z,1003.41
2019-05-17T01:58:57.495Z,1003.37
2019-05-17T01:59:57.139Z,1003.35
2019-05-17T02:00:57.391Z,1003.33
2019-05-17T02:01:56.515Z,1003.31
2019-05-17T02:02:57.746Z,1003.30
2019-05-17T02:03:57.519Z,1003.32
2019-05-17T02:04:56.973Z,1003.29
2019-05-17T02:05:56.597Z,1003.30
2019-05-17T02:06:57.397Z,1003.29
2019-05-17T02:07:56.966Z,1003.29
2019-05-17T02:08:56.897Z,1003.26
2019-05-17T02:09:56.851Z,1003.27
2019-05-17T02:10:57.353Z,1003.25
2019-05-17T02:11:57.166Z,1003.26
2019-05-17T02:12:57.044Z,1003.25
2019-05-17T02:13:56.215Z,1003.24
2019-05-17T02:14:57.557Z,1003.23
2019-05-17T02:15:56.448Z,1003.25
2019-05-17T02:16:57.354Z,1003.25
2019-05-17T02:17:57.353Z,1003.23
2019-05-17T02:18:57.353Z,1003.24
2019-05-17T02:19:57.291Z,1003.24
2019-05-17T02:20:57.048Z,1003.20
2019-05-17T02:21:57.019Z,1003.20
2019-05-17T02:22:56.512Z,1003.18
2019-05-17T02:23:57.114Z,1003.19
2019-05-17T02:24:56.792Z,1003.18
2019-05-17T02:25:57.192Z,1003.19
2019-05-17T02:26:57.046Z,1003.17
2019-05-17T02:27:55.518Z,1003.18
2019-05-17T02:28:55.507Z,1003.18
2019-05-17T02:29:55.499Z,1003.14
2019-05-17T02:30:55.496Z,1003.16
2019-05-17T02:31:55.486Z,1003.19
2019-05-17T02:32:55.477Z,1003.19
2019-05-17T02:33:55.476Z,1003.15
2019-05-17T02:34:55.456Z,1003.14
2019-05-17T02:35:55.456Z,1003.17
2019-05-17T02:36:55.454Z,1003.10
2019-05-17T02:37:55.436Z,1003.13
2019-05-17T02:38:55.431Z,1003.11
2019-05-17T02:40:03.069Z,1003.11
2019-05-17T02:40:55.415Z,1003.08
2019-05-17T02:41:55.409Z,1003.08
2019-05-17T02:42:55.413Z,1003.05
2019-05-17T02:43:55.395Z,1003.08
2019-05-17T02:44:55.391Z,1003.08
2019-05-17T02:45:55.378Z,1003.11
2019-05-17T02:46:55.381Z,1003.10
2019-05-17T02:47:55.368Z,1003.06
2019-05-17T02:48:55.358Z,1003.06
2019-05-17T02:49:55.341Z,1003.10
2019-05-17T02:50:55.340Z,1003.11
2019-05-17T02:51:55.333Z,1003.11
2019-05-17T02:52:55.330Z,1003.09
2019-05-17T02:53:55.319Z,1003.11
2019-05-17T02:54:55.318Z,1003.11
2019-05-17T02:55:55.303Z,1003.06
2019-05-17T02:56:55.300Z,1003.10
2019-05-17T02:57:55.288Z,1003.09
2019-05-17T02:58:55.280Z,1003.07
2019-05-17T02:59:55.273Z,1003.09
2019-05-17T03:00:55.264Z,1003.11
2019-05-17T03:01:55.257Z,1003.06
2019-05-17T03:02:55.257Z,1003.10
2019-05-17T03:03:55.242Z,1003.06
2019-05-17T03:04:55.233Z,1003.07
2019-05-17T03:05:55.226Z,1003.04
2019-05-17T03:06:55.930Z,1003.06
2019-05-17T03:07:55.215Z,1003.02
2019-05-17T03:08:55.212Z,1003.01
2019-05-17T03:10:12.300Z,1003.03
2019-05-17T03:10:55.186Z,1002.98
2019-05-17T03:11:57.080Z,1002.96
2019-05-17T03:12:55.171Z,1002.94
2019-05-17T03:13:55.167Z,1002.97
2019-05-17T03:14:55.158Z,1002.95
2019-05-17T03:15:55.154Z,1002.96
2019-05-17T03:16:55.147Z,1002.93
2019-05-17T03:17:55.137Z,1002.92
2019-05-17T03:18:55.125Z,1002.93
2019-05-17T03:19:55.123Z,1002.93
2019-05-17T03:20:55.117Z,1002.95
2019-05-17T03:21:55.113Z,1002.92
2019-05-17T03:22:55.094Z,1002.94
2019-05-17T03:23:55.092Z,1002.91
2019-05-17T03:24:55.081Z,1002.90
2019-05-17T03:25:55.075Z,1002.93
2019-05-17T03:26:55.077Z,1002.90
2019-05-17T03:27:55.062Z,1002.88
2019-05-17T03:28:55.939Z,1002.87
2019-05-17T03:29:55.042Z,1002.87
2019-05-17T03:30:56.832Z,1002.86
2019-05-17T03:32:00.016Z,1002.86
2019-05-17T03:32:56.754Z,1002.85
2019-05-17T03:33:56.071Z,1002.86
2019-05-17T03:34:56.466Z,1002.82
2019-05-17T03:35:56.518Z,1002.81
2019-05-17T03:36:56.425Z,1002.81
2019-05-17T03:37:54.989Z,1002.78
2019-05-17T03:38:54.981Z,1002.82
2019-05-17T03:39:54.976Z,1002.78
2019-05-17T03:41:13.930Z,1002.78
2019-05-17T03:41:54.954Z,1002.76
2019-05-17T03:42:54.950Z,1002.79
2019-05-17T03:43:54.941Z,1002.75
2019-05-17T03:44:54.940Z,1002.78
2019-05-17T03:45:54.928Z,1002.72
2019-05-17T03:46:54.925Z,1002.76
2019-05-17T03:47:55.445Z,1002.76
2019-05-17T03:48:54.907Z,1002.76
2019-05-17T03:49:54.901Z,1002.73
2019-05-17T03:50:54.889Z,1002.76
2019-05-17T03:51:54.890Z,1002.76
2019-05-17T03:52:54.877Z,1002.78
2019-05-17T03:53:54.869Z,1002.77
2019-05-17T03:54:54.862Z,1002.76
2019-05-17T03:55:54.852Z,1002.78
2019-05-17T03:56:54.846Z,1002.75
2019-05-17T03:57:54.842Z,1002.74
2019-05-17T03:58:54.848Z,1002.75
2019-05-17T03:59:54.825Z,1002.74
2019-05-17T04:00:54.841Z,1002.72
2019-05-17T04:01:54.808Z,1002.74
2019-05-17T04:02:54.832Z,1002.68
2019-05-17T04:03:54.797Z,1002.73
2019-05-17T04:04:54.789Z,1002.73
2019-05-17T04:05:54.779Z,1002.70
2019-05-17T04:06:54.782Z,1002.74
2019-05-17T04:07:54.776Z,1002.74
2019-05-17T04:08:54.796Z,1002.67
2019-05-17T04:09:54.754Z,1002.69
2019-05-17T04:10:54.747Z,1002.70
2019-05-17T04:11:54.740Z,1002.69
2019-05-17T04:12:54.733Z,1002.69
2019-05-17T04:13:54.737Z,1002.67
2019-05-17T04:14:54.712Z,1002.71
2019-05-17T04:15:54.705Z,1002.69
2019-05-17T04:16:54.723Z,1002.69
2019-05-17T04:17:54.708Z,1002.66
2019-05-17T04:18:54.695Z,1002.68
2019-05-17T04:19:54.690Z,1002.71
2019-05-17T04:20:54.673Z,1002.68
2019-05-17T04:21:55.695Z,1002.71
2019-05-17T04:22:54.656Z,1002.72
2019-05-17T04:23:54.651Z,1002.74
2019-05-17T04:24:54.646Z,1002.68
2019-05-17T04:25:54.634Z,1002.68
2019-05-17T04:26:54.647Z,1002.69
2019-05-17T04:27:54.619Z,1002.69
2019-05-17T04:28:54.612Z,1002.67
2019-05-17T04:29:54.610Z,1002.68
2019-05-17T04:30:54.619Z,1002.69
2019-05-17T04:31:54.728Z,1002.65
2019-05-17T04:32:54.591Z,1002.67
2019-05-17T04:33:54.580Z,1002.68
2019-05-17T04:34:54.572Z,1002.70
2019-05-17T04:35:54.562Z,1002.69
2019-05-17T04:36:54.556Z,1002.69
2019-05-17T04:37:54.550Z,1002.65
2019-05-17T04:38:54.545Z,1002.65
2019-05-17T04:39:54.534Z,1002.69
2019-05-17T04:40:54.525Z,1002.65
2019-05-17T04:41:55.126Z,1002.66
2019-05-17T04:42:54.518Z,1002.71
2019-05-17T04:43:54.506Z,1002.69
2019-05-17T04:44:54.501Z,1002.64
2019-05-17T04:45:54.491Z,1002.68
2019-05-17T04:46:54.481Z,1002.67
2019-05-17T04:47:54.477Z,1002.70
2019-05-17T04:48:54.479Z,1002.67
2019-05-17T04:49:54.465Z,1002.68
2019-05-17T04:50:54.458Z,1002.70
2019-05-17T04:51:54.454Z,1002.69
2019-05-17T04:52:54.443Z,1002.69
2019-05-17T04:53:54.431Z,1002.66
2019-05-17T04:54:54.426Z,1002.65
2019-05-17T04:55:54.421Z,1002.62
2019-05-17T04:56:54.429Z,1002.67
2019-05-17T04:57:54.418Z,1002.66
2019-05-17T04:58:54.606Z,1002.65
2019-05-17T04:59:54.391Z,1002.65
2019-05-17T05:00:54.386Z,1002.63
2019-05-17T05:01:54.383Z,1002.63
2019-05-17T05:02:54.372Z,1002.65
2019-05-17T05:03:54.366Z,1002.62
2019-05-17T05:04:54.358Z,1002.65
2019-05-17T05:05:54.347Z,1002.63
2019-05-17T05:06:54.341Z,1002.62
2019-05-17T05:07:54.335Z,1002.62
2019-05-17T05:08:54.336Z,1002.62
2019-05-17T05:09:54.323Z,1002.60
2019-05-17T05:10:54.315Z,1002.63
2019-05-17T05:12:01.179Z,1002.60
2019-05-17T05:12:54.297Z,1002.56
2019-05-17T05:13:54.295Z,1002.60
2019-05-17T05:14:54.287Z,1002.59
2019-05-17T05:15:54.280Z,1002.59
2019-05-17T05:16:54.278Z,1002.56
2019-05-17T05:17:54.262Z,1002.56
2019-05-17T05:18:54.258Z,1002.53
2019-05-17T05:19:54.247Z,1002.53
2019-05-17T05:20:54.241Z,1002.57
2019-05-17T05:21:54.236Z,1002.54
2019-05-17T05:22:54.235Z,1002.56
2019-05-17T05:23:54.222Z,1002.57
2019-05-17T05:24:54.214Z,1002.54
2019-05-17T05:25:54.202Z,1002.56
2019-05-17T05:26:54.197Z,1002.59
2019-05-17T05:27:54.194Z,1002.53
2019-05-17T05:28:54.187Z,1002.56
2019-05-17T05:29:54.175Z,1002.56
2019-05-17T05:30:54.172Z,1002.56
2019-05-17T05:31:54.160Z,1002.54
2019-05-17T05:32:54.156Z,1002.59
2019-05-17T05:33:54.153Z,1002.57
2019-05-17T05:34:54.144Z,1002.56
2019-05-17T05:35:54.137Z,1002.55
2019-05-17T05:36:54.132Z,1002.56
2019-05-17T05:37:54.123Z,1002.56
2019-05-17T05:38:54.111Z,1002.54
2019-05-17T05:39:54.659Z,1002.57
2019-05-17T05:40:54.106Z,1002.60
2019-05-17T05:42:06.370Z,1002.57
2019-05-17T05:42:54.087Z,1002.55
2019-05-17T05:43:54.077Z,1002.58
2019-05-17T05:44:55.528Z,1002.57
2019-05-17T05:45:54.066Z,1002.59
2019-05-17T05:46:54.062Z,1002.61
2019-05-17T05:47:54.052Z,1002.58
2019-05-17T05:48:54.055Z,1002.59
2019-05-17T05:49:54.037Z,1002.55
2019-05-17T05:50:54.027Z,1002.57
2019-05-17T05:51:54.032Z,1002.55
2019-05-17T05:53:01.960Z,1002.55
2019-05-17T05:53:58.544Z,1002.56
2019-05-17T05:54:57.117Z,1002.56
2019-05-17T05:55:54.077Z,1002.61
2019-05-17T05:56:53.994Z,1002.54
2019-05-17T05:57:53.982Z,1002.60
2019-05-17T05:58:53.975Z,1002.58
2019-05-17T05:59:53.979Z,1002.53
2019-05-17T06:00:53.965Z,1002.53
2019-05-17T06:01:53.953Z,1002.54
2019-05-17T06:02:53.961Z,1002.53
2019-05-17T06:03:53.940Z,1002.53
2019-05-17T06:04:53.932Z,1002.58
2019-05-17T06:05:53.928Z,1002.52
2019-05-17T06:06:53.927Z,1002.54
2019-05-17T06:07:53.918Z,1002.53
2019-05-17T06:08:53.907Z,1002.58
2019-05-17T06:09:53.899Z,1002.55
2019-05-17T06:10:53.891Z,1002.53
2019-05-17T06:11:53.885Z,1002.52
2019-05-17T06:12:53.889Z,1002.53
2019-05-17T06:13:53.880Z,1002.53
2019-05-17T06:14:53.872Z,1002.51
2019-05-17T06:15:53.859Z,1002.52
2019-05-17T06:16:53.853Z,1002.54
2019-05-17T06:17:53.839Z,1002.51
2019-05-17T06:18:53.844Z,1002.49
2019-05-17T06:19:53.836Z,1002.51
2019-05-17T06:20:53.828Z,1002.52
2019-05-17T06:21:53.822Z,1002.49
2019-05-17T06:22:53.818Z,1002.51
2019-05-17T06:23:53.809Z,1002.50
2019-05-17T06:24:53.799Z,1002.49
2019-05-17T06:25:53.797Z,1002.50
2019-05-17T06:26:53.790Z,1002.50
2019-05-17T06:27:53.791Z,1002.51
2019-05-17T06:28:53.774Z,1002.50
2019-05-17T06:29:53.770Z,1002.50
2019-05-17T06:30:53.762Z,1002.46
2019-05-17T06:31:53.754Z,1002.48
2019-05-17T06:32:53.747Z,1002.49
2019-05-17T06:33:53.738Z,1002.48
2019-05-17T06:34:53.733Z,1002.47
2019-05-17T06:35:53.727Z,1002.48
2019-05-17T06:36:53.719Z,1002.51
2019-05-17T06:37:53.712Z,1002.51
2019-05-17T06:38:53.707Z,1002.51
2019-05-17T06:39:53.700Z,1002.50
2019-05-17T06:40:53.694Z,1002.51
2019-05-17T06:41:53.682Z,1002.50
2019-05-17T06:42:53.678Z,1002.46
2019-05-17T06:43:53.671Z,1002.49
2019-05-17T06:44:53.663Z,1002.49
2019-05-17T06:45:53.662Z,1002.49
2019-05-17T06:46:53.653Z,1002.46
2019-05-17T06:47:53.646Z,1002.45
2019-05-17T06:48:53.648Z,1002.44
2019-05-17T06:49:53.683Z,1002.44
2019-05-17T06:50:53.628Z,1002.41
2019-05-17T06:51:53.621Z,1002.45
2019-05-17T06:52:53.624Z,1002.45
2019-05-17T06:53:53.606Z,1002.43
2019-05-17T06:54:53.597Z,1002.45
2019-05-17T06:55:53.606Z,1002.45
2019-05-17T06:56:53.585Z,1002.44
2019-05-17T06:57:53.579Z,1002.44
2019-05-17T06:58:53.576Z,1002.47
2019-05-17T06:59:53.571Z,1002.44
2019-05-17T07:00:53.560Z,1002.43
2019-05-17T07:01:53.550Z,1002.45
2019-05-17T07:02:53.541Z,1002.43
2019-05-17T07:03:53.541Z,1002.44
2019-05-17T07:04:53.533Z,1002.46
2019-05-17T07:05:53.521Z,1002.44
2019-05-17T07:06:53.516Z,1002.42
2019-05-17T07:07:53.521Z,1002.44
2019-05-17T07:08:53.503Z,1002.41
2019-05-17T07:09:53.501Z,1002.44
2019-05-17T07:10:53.494Z,1002.43
2019-05-17T07:11:53.485Z,1002.41
2019-05-17T07:12:58.673Z,1002.42
2019-05-17T07:13:53.467Z,1002.38
2019-05-17T07:14:53.461Z,1002.39
2019-05-17T07:15:53.456Z,1002.36
2019-05-17T07:16:53.451Z,1002.38
2019-05-17T07:17:53.446Z,1002.34
2019-05-17T07:18:53.436Z,1002.34
2019-05-17T07:19:53.430Z,1002.34
2019-05-17T07:20:53.426Z,1002.34
2019-05-17T07:21:53.418Z,1002.37
2019-05-17T07:22:53.409Z,1002.34
2019-05-17T07:23:53.399Z,1002.32
2019-05-17T07:24:53.396Z,1002.31
2019-05-17T07:25:53.384Z,1002.36
2019-05-17T07:26:53.387Z,1002.34
2019-05-17T07:27:53.375Z,1002.36
2019-05-17T07:28:53.371Z,1002.33
2019-05-17T07:29:53.361Z,1002.36
2019-05-17T07:30:53.365Z,1002.34
2019-05-17T07:31:53.348Z,1002.36
2019-05-17T07:32:53.341Z,1002.35
2019-05-17T07:33:53.331Z,1002.34
2019-05-17T07:34:53.323Z,1002.35
2019-05-17T07:35:53.319Z,1002.31
2019-05-17T07:36:53.317Z,1002.34
2019-05-17T07:37:53.295Z,1002.33
2019-05-17T07:38:53.304Z,1002.30
2019-05-17T07:40:01.030Z,1002.30
2019-05-17T07:40:53.286Z,1002.30
2019-05-17T07:41:53.278Z,1002.26
2019-05-17T07:43:06.689Z,1002.30
2019-05-17T07:43:54.262Z,1002.28
2019-05-17T07:44:53.261Z,1002.28
2019-05-17T07:45:53.248Z,1002.25
2019-05-17T07:46:53.241Z,1002.29
2019-05-17T07:47:53.233Z,1002.25
2019-05-17T07:48:53.229Z,1002.24
2019-05-17T07:49:54.658Z,1002.25
2019-05-17T07:50:53.218Z,1002.25
2019-05-17T07:51:53.212Z,1002.22
2019-05-17T07:52:53.202Z,1002.17
2019-05-17T07:53:53.199Z,1002.16
2019-05-17T07:54:53.191Z,1002.17
2019-05-17T07:55:55.902Z,1002.11
2019-05-17T07:56:53.181Z,1002.15
2019-05-17T07:57:53.170Z,1002.12
2019-05-17T07:58:53.166Z,1002.12
2019-05-17T07:59:53.165Z,1002.10
2019-05-17T08:00:53.157Z,1002.07
2019-05-17T08:01:53.140Z,1002.10
2019-05-17T08:02:53.140Z,1002.07
2019-05-17T08:03:53.156Z,1002.11
2019-05-17T08:04:53.293Z,1002.06
2019-05-17T08:05:53.246Z,1002.06
2019-05-17T08:06:53.254Z,1002.03
2019-05-17T08:07:53.244Z,1002.04
2019-05-17T08:08:53.255Z,1002.01
2019-05-17T08:09:53.192Z,1002.04
2019-05-17T08:10:53.214Z,1002.05
2019-05-17T08:11:53.212Z,1002.03
2019-05-17T08:12:53.232Z,1002.04
2019-05-17T08:13:53.208Z,1002.03
2019-05-17T08:14:53.216Z,1002.04
2019-05-17T08:15:53.227Z,1002.05
2019-05-17T08:16:53.171Z,1002.00
2019-05-17T08:17:53.227Z,1002.01
2019-05-17T08:18:53.238Z,1002.02
2019-05-17T08:19:53.132Z,1001.97
2019-05-17T08:20:53.196Z,1001.98
2019-05-17T08:21:53.837Z,1001.96
2019-05-17T08:22:53.147Z,1001.98
2019-05-17T08:23:53.116Z,1001.94
2019-05-17T08:24:53.125Z,1001.90
2019-05-17T08:25:56.190Z,1001.91
2019-05-17T08:26:53.150Z,1001.90
2019-05-17T08:27:53.085Z,1001.87
2019-05-17T08:28:53.083Z,1001.89
2019-05-17T08:29:53.077Z,1001.89
2019-05-17T08:30:53.008Z,1001.90
2019-05-17T08:31:53.113Z,1001.85
2019-05-17T08:32:53.010Z,1001.86
2019-05-17T08:33:53.071Z,1001.87
2019-05-17T08:34:53.026Z,1001.87
2019-05-17T08:35:53.088Z,1001.87
2019-05-17T08:36:53.076Z,1001.87
2019-05-17T08:37:53.018Z,1001.84
2019-05-17T08:38:53.046Z,1001.88
2019-05-17T08:39:53.058Z,1001.84
2019-05-17T08:40:52.937Z,1001.87
2019-05-17T08:41:52.877Z,1001.87
2019-05-17T08:42:53.023Z,1001.87
2019-05-17T08:43:52.956Z,1001.89
2019-05-17T08:44:53.022Z,1001.89
2019-05-17T08:45:52.855Z,1001.88
2019-05-17T08:46:54.658Z,1001.83
2019-05-17T08:47:52.976Z,1001.84
2019-05-17T08:48:52.969Z,1001.85
2019-05-17T08:49:52.830Z,1001.83
2019-05-17T08:50:52.943Z,1001.81
2019-05-17T08:51:52.946Z,1001.85
2019-05-17T08:52:52.963Z,1001.80
2019-05-17T08:53:52.893Z,1001.82
2019-05-17T08:54:52.915Z,1001.83
2019-05-17T08:55:52.971Z,1001.79
2019-05-17T08:56:52.921Z,1001.80
2019-05-17T08:57:52.781Z,1001.82
2019-05-17T08:58:52.914Z,1001.79
2019-05-17T08:59:52.922Z,1001.77
2019-05-17T09:00:52.922Z,1001.78
2019-05-17T09:01:52.866Z,1001.78
2019-05-17T09:02:52.893Z,1001.79
2019-05-17T09:03:52.870Z,1001.76
2019-05-17T09:04:52.869Z,1001.75
2019-05-17T09:05:53.136Z,1001.78
2019-05-17T09:06:52.907Z,1001.74
2019-05-17T09:07:52.845Z,1001.73
2019-05-17T09:08:52.713Z,1001.67
2019-05-17T09:09:52.805Z,1001.65
2019-05-17T09:10:52.800Z,1001.69
2019-05-17T09:11:52.697Z,1001.63
2019-05-17T09:12:52.693Z,1001.62
2019-05-17T09:13:57.952Z,1001.61
2019-05-17T09:14:52.675Z,1001.62
2019-05-17T09:15:52.667Z,1001.61
2019-05-17T09:16:52.672Z,1001.58
2019-05-17T09:17:52.800Z,1001.54
2019-05-17T09:18:52.741Z,1001.50
2019-05-17T09:19:54.420Z,1001.51
2019-05-17T09:20:52.756Z,1001.51
2019-05-17T09:21:52.785Z,1001.50
2019-05-17T09:22:52.785Z,1001.49
2019-05-17T09:23:52.760Z,1001.49
2019-05-17T09:24:52.747Z,1001.50
2019-05-17T09:25:52.761Z,1001.50
2019-05-17T09:26:52.716Z,1001.49
2019-05-17T09:27:52.758Z,1001.52
2019-05-17T09:28:52.729Z,1001.52
2019-05-17T09:29:52.710Z,1001.53
2019-05-17T09:30:52.756Z,1001.55
2019-05-17T09:31:52.771Z,1001.53
2019-05-17T09:32:52.731Z,1001.50
2019-05-17T09:33:52.738Z,1001.53
2019-05-17T09:34:52.749Z,1001.52
2019-05-17T09:35:52.711Z,1001.52
2019-05-17T09:36:52.552Z,1001.52
2019-05-17T09:37:52.667Z,1001.48
2019-05-17T09:38:52.719Z,1001.50
2019-05-17T09:39:52.694Z,1001.50
2019-05-17T09:40:52.685Z,1001.49
2019-05-17T09:41:52.668Z,1001.46
2019-05-17T09:42:52.650Z,1001.44
2019-05-17T09:43:52.524Z,1001.46
2019-05-17T09:44:52.657Z,1001.44
2019-05-17T09:45:52.638Z,1001.42
2019-05-17T09:46:52.650Z,1001.42
2019-05-17T09:47:52.678Z,1001.39
2019-05-17T09:48:52.631Z,1001.42
2019-05-17T09:49:52.658Z,1001.41
2019-05-17T09:50:52.593Z,1001.40
2019-05-17T09:51:52.604Z,1001.42
2019-05-17T09:52:52.622Z,1001.46
2019-05-17T09:53:52.628Z,1001.43
2019-05-17T09:54:52.602Z,1001.46
2019-05-17T09:55:52.581Z,1001.42
2019-05-17T09:56:52.597Z,1001.45
2019-05-17T09:57:52.458Z,1001.47
2019-05-17T09:58:52.526Z,1001.39
2019-05-17T09:59:52.484Z,1001.39
2019-05-17T10:00:52.568Z,1001.44
2019-05-17T10:01:52.538Z,1001.42
2019-05-17T10:02:52.578Z,1001.44
2019-05-17T10:03:52.499Z,1001.39
2019-05-17T10:04:52.577Z,1001.37
2019-05-17T10:05:52.550Z,1001.35
2019-05-17T10:06:52.564Z,1001.30
2019-05-17T10:07:52.578Z,1001.32
2019-05-17T10:08:52.552Z,1001.33
2019-05-17T10:09:52.544Z,1001.38
2019-05-17T10:11:04.814Z,1001.31
2019-05-17T10:11:52.564Z,1001.34
2019-05-17T10:12:52.503Z,1001.36
2019-05-17T10:13:52.525Z,1001.36
2019-05-17T10:14:52.508Z,1001.33
2019-05-17T10:15:52.386Z,1001.35
2019-05-17T10:16:52.548Z,1001.33
2019-05-17T10:17:52.530Z,1001.32
2019-05-17T10:18:52.486Z,1001.33
2019-05-17T10:19:52.377Z,1001.33
2019-05-17T10:20:52.374Z,1001.30
2019-05-17T10:21:52.368Z,1001.30
2019-05-17T10:22:52.389Z,1001.35
2019-05-17T10:23:52.362Z,1001.31
2019-05-17T10:24:52.360Z,1001.31
2019-05-17T10:25:52.357Z,1001.28
2019-05-17T10:26:52.357Z,1001.28
2019-05-17T10:27:52.422Z,1001.31
2019-05-17T10:28:52.354Z,1001.26
2019-05-17T10:29:52.344Z,1001.31
2019-05-17T10:30:52.611Z,1001.33
2019-05-17T10:31:52.349Z,1001.29
2019-05-17T10:32:52.331Z,1001.29
2019-05-17T10:33:52.328Z,1001.27
2019-05-17T10:34:52.330Z,1001.27
2019-05-17T10:35:52.328Z,1001.28
2019-05-17T10:36:52.329Z,1001.30
2019-05-17T10:37:52.327Z,1001.32
2019-05-17T10:38:52.319Z,1001.30
2019-05-17T10:39:52.317Z,1001.33
2019-05-17T10:40:52.318Z,1001.29
2019-05-17T10:41:52.307Z,1001.30
2019-05-17T10:42:52.303Z,1001.29
2019-05-17T10:43:52.451Z,1001.27
2019-05-17T10:44:54.796Z,1001.30
2019-05-17T10:45:52.412Z,1001.30
2019-05-17T10:46:52.351Z,1001.28
2019-05-17T10:47:52.445Z,1001.26
2019-05-17T10:48:52.283Z,1001.32
2019-05-17T10:49:52.286Z,1001.34
2019-05-17T10:50:52.281Z,1001.34
2019-05-17T10:51:52.278Z,1001.33
2019-05-17T10:52:52.276Z,1001.30
2019-05-17T10:53:52.283Z,1001.34
2019-05-17T10:54:52.281Z,1001.34
2019-05-17T10:55:52.264Z,1001.34
2019-05-17T10:56:52.264Z,1001.31
2019-05-17T10:57:52.261Z,1001.34
2019-05-17T10:58:52.258Z,1001.31
2019-05-17T10:59:52.254Z,1001.32
2019-05-17T11:00:52.253Z,1001.31
2019-05-17T11:01:52.248Z,1001.32
2019-05-17T11:02:52.248Z,1001.30
2019-05-17T11:03:52.243Z,1001.34
2019-05-17T11:04:52.234Z,1001.34
2019-05-17T11:05:52.234Z,1001.30
2019-05-17T11:06:52.232Z,1001.28
2019-05-17T11:07:52.226Z,1001.29
2019-05-17T11:08:52.224Z,1001.29
2019-05-17T11:09:52.240Z,1001.33
2019-05-17T11:10:52.221Z,1001.32
2019-05-17T11:11:52.215Z,1001.28
2019-05-17T11:12:52.220Z,1001.30
2019-05-17T11:13:53.080Z,1001.29
2019-05-17T11:15:08.183Z,1001.34
2019-05-17T11:15:52.207Z,1001.29
2019-05-17T11:16:52.198Z,1001.27
2019-05-17T11:17:52.199Z,1001.31
2019-05-17T11:18:52.210Z,1001.29
2019-05-17T11:19:52.189Z,1001.29
2019-05-17T11:20:52.183Z,1001.30
2019-05-17T11:21:52.182Z,1001.30
2019-05-17T11:22:52.185Z,1001.27
2019-05-17T11:23:52.181Z,1001.25
2019-05-17T11:24:52.175Z,1001.27
2019-05-17T11:25:52.170Z,1001.24
2019-05-17T11:26:52.165Z,1001.26
2019-05-17T11:27:52.163Z,1001.30
2019-05-17T11:28:52.162Z,1001.25
2019-05-17T11:29:52.158Z,1001.32
2019-05-17T11:30:52.159Z,1001.25
2019-05-17T11:31:52.153Z,1001.26
2019-05-17T11:32:52.156Z,1001.28
2019-05-17T11:33:52.142Z,1001.23
2019-05-17T11:34:52.142Z,1001.25
2019-05-17T11:35:52.146Z,1001.23
2019-05-17T11:36:52.144Z,1001.27
2019-05-17T11:37:52.131Z,1001.27
2019-05-17T11:38:52.128Z,1001.30
2019-05-17T11:39:52.129Z,1001.27
2019-05-17T11:40:52.122Z,1001.27
2019-05-17T11:41:52.123Z,1001.26
2019-05-17T11:42:52.143Z,1001.26
2019-05-17T11:43:52.108Z,1001.27
2019-05-17T11:44:52.122Z,1001.29
2019-05-17T11:45:52.118Z,1001.24
2019-05-17T11:46:52.107Z,1001.25
2019-05-17T11:47:52.109Z,1001.26
2019-05-17T11:48:52.107Z,1001.28
2019-05-17T11:49:52.108Z,1001.25
2019-05-17T11:50:55.042Z,1001.22
2019-05-17T11:51:52.096Z,1001.23
2019-05-17T11:52:52.099Z,1001.25
2019-05-17T11:53:52.092Z,1001.25
2019-05-17T11:54:52.089Z,1001.22
2019-05-17T11:55:52.088Z,1001.21
2019-05-17T11:56:52.094Z,1001.22
2019-05-17T11:57:52.081Z,1001.20
2019-05-17T11:58:52.074Z,1001.24
2019-05-17T11:59:52.072Z,1001.17
2019-05-17T12:00:52.076Z,1001.15
2019-05-17T12:01:52.080Z,1001.20
2019-05-17T12:02:52.075Z,1001.15
2019-05-17T12:03:54.358Z,1001.15
2019-05-17T12:04:54.314Z,1001.10
2019-05-17T12:05:52.295Z,1001.11